Terminal Aerodrome Forecast
Issued by NWS Twin Cities, MN

Home | Current Version | Previous Version | Text Only | Print | Product List | Glossary Off
Versions: 1 2 3 4 5 6 7 8 9 10 11 12 13 14 15 16 17 18

000
FTUS43 KMPX 191400 AAA
TAFSTC
TAF AMD
KSTC 191430Z 1915/2012 15006KT 5SM BR SCT006 OVC010
     FM191600 15006KT 4SM BR OVC008
     FM200600 16005KT 3SM BR OVC007=

USA.gov is the U.S. government's official web portal to all federal, state and local government web resources and services.